Time;durP1;ratioP1;P1;durP2;ratioP2;P2;SDS_P1;SDS_P2;PMS_P1;PMS_P2;Temp;Humidity;BMP_temperature;BMP_pressure;BME280_temperature;BME280_humidity;BME280_pressure;Samples;Min_cycle;Max_cycle;Signal;HPM_P1;HPM_P2
2021/12/07 00:02:27;;;;;;;15.40;14.27;;;2.60;99.90;;;;;;5049541;28;20479;-78
2021/12/07 00:04:53;;;;;;;16.50;15.20;;;2.60;99.90;;;;;;5050185;28;20432;-77
2021/12/07 00:07:20;;;;;;;14.90;13.90;;;2.60;99.90;;;;;;5050618;28;20500;-78
2021/12/07 00:09:50;;;;;;;15.73;14.63;;;2.60;99.90;;;;;;5050394;28;20488;-78
2021/12/07 00:12:17;;;;;;;15.47;14.37;;;2.60;99.90;;;;;;5054433;28;20450;-77
2021/12/07 00:14:44;;;;;;;15.87;14.57;;;2.60;99.90;;;;;;5050955;28;20481;-77
2021/12/07 00:17:12;;;;;;;15.60;14.50;;;2.60;99.90;;;;;;5047402;28;20481;-78
2021/12/07 00:19:40;;;;;;;15.87;14.67;;;2.60;99.90;;;;;;5051684;28;20481;-78
2021/12/07 00:22:09;;;;;;;15.27;14.17;;;2.60;99.90;;;;;;5055352;28;20441;-77
2021/12/07 00:24:36;;;;;;;16.27;15.00;;;2.70;99.90;;;;;;5048329;28;20862;-78
2021/12/07 00:27:04;;;;;;;15.47;14.37;;;2.70;99.90;;;;;;5055452;28;20448;-78
2021/12/07 00:29:31;;;;;;;15.20;14.10;;;2.70;99.90;;;;;;5044741;28;20881;-77
2021/12/07 00:32:15;;;;;;;15.20;14.10;;;2.80;99.90;;;;;;5046837;28;20902;-78
2021/12/07 00:34:56;;;;;;;14.90;13.80;;;2.80;99.90;;;;;;5044576;28;20501;-77
2021/12/07 00:37:25;;;;;;;14.20;13.20;;;2.80;99.90;;;;;;5053573;28;20451;-77
2021/12/07 00:39:52;;;;;;;14.33;13.43;;;2.90;99.90;;;;;;5048801;28;20477;-78
2021/12/07 00:42:20;;;;;;;14.50;13.60;;;2.90;99.90;;;;;;5049508;28;20521;-78
2021/12/07 00:44:47;;;;;;;14.00;13.10;;;2.90;99.90;;;;;;5054097;28;20449;-77
2021/12/07 00:47:14;;;;;;;13.43;12.63;;;3.00;99.90;;;;;;5052425;28;20448;-78
2021/12/07 00:49:41;;;;;;;13.10;12.10;;;3.00;99.90;;;;;;5047232;28;20554;-77
2021/12/07 00:52:09;;;;;;;13.30;12.57;;;3.00;99.90;;;;;;5050131;28;20473;-77
2021/12/07 00:54:36;;;;;;;12.40;11.70;;;3.10;99.90;;;;;;5054336;28;20438;-78
2021/12/07 00:57:04;;;;;;;12.70;12.00;;;3.10;99.90;;;;;;5049426;28;20453;-78
2021/12/07 00:59:33;;;;;;;12.57;11.87;;;3.20;99.90;;;;;;5047804;28;20472;-77
2021/12/07 01:02:01;;;;;;;12.70;11.90;;;3.20;99.90;;;;;;5045161;28;20447;-78
2021/12/07 01:04:29;;;;;;;12.57;11.87;;;3.20;99.90;;;;;;5060149;28;20460;-78
2021/12/07 01:07:04;;;;;;;12.50;11.80;;;3.20;99.90;;;;;;5046409;28;20458;-78
2021/12/07 01:09:38;;;;;;;12.57;11.87;;;3.20;99.90;;;;;;5046908;28;20218;-78
2021/12/07 01:25:55;;;;;;;13.20;12.40;;;3.20;99.90;;;;;;5049754;28;20425;-78
2021/12/07 01:28:28;;;;;;;13.37;12.60;;;3.10;99.90;;;;;;5047082;28;20467;-77
2021/12/07 01:31:02;;;;;;;13.17;12.27;;;3.10;99.90;;;;;;5052466;28;20489;-77
2021/12/07 01:33:59;;;;;;;12.83;12.13;;;3.00;99.90;;;;;;5051605;28;20460;-78
2021/12/07 01:36:46;;;;;;;13.27;12.40;;;3.00;99.90;;;;;;5051917;28;20488;-78
2021/12/07 01:39:48;;;;;;;12.90;12.20;;;3.00;99.90;;;;;;5049050;28;20454;-78
2021/12/07 01:47:57;;;;;;;12.70;12.00;;;3.00;99.90;;;;;;5037541;28;20215;-77
2021/12/07 01:50:42;;;;;;;12.53;11.83;;;3.00;99.90;;;;;;5046965;28;20718;-78
2021/12/07 01:57:54;;;;;;;12.90;12.20;;;3.00;99.90;;;;;;5052833;28;20203;-78
2021/12/07 02:01:48;;;;;;;12.60;11.90;;;3.00;99.90;;;;;;5042915;28;20229;-77
2021/12/07 02:04:17;;;;;;;12.80;12.10;;;3.00;99.90;;;;;;5051770;28;20212;-78
2021/12/07 02:06:44;;;;;;;12.77;11.97;;;3.10;99.90;;;;;;5052424;28;20472;-77
2021/12/07 02:09:12;;;;;;;12.90;12.20;;;3.00;99.90;;;;;;5052035;28;20254;-78
2021/12/07 02:11:47;;;;;;;12.80;12.00;;;3.00;99.90;;;;;;5052424;28;20537;-78
2021/12/07 02:14:18;;;;;;;12.70;12.00;;;3.00;99.90;;;;;;5052603;28;20245;-78
2021/12/07 02:16:49;;;;;;;13.20;12.30;;;3.00;99.90;;;;;;5052335;28;20704;-78
2021/12/07 02:19:18;;;;;;;13.20;12.40;;;2.90;99.90;;;;;;5048464;28;20462;-77
2021/12/07 02:21:47;;;;;;;13.67;12.70;;;2.90;99.90;;;;;;5052601;28;20282;-78
2021/12/07 02:24:30;;;;;;;13.63;12.77;;;2.90;99.90;;;;;;5043591;28;20285;-78
2021/12/07 02:26:58;;;;;;;13.83;12.93;;;2.90;99.90;;;;;;5053434;28;20195;-77
2021/12/07 02:29:25;;;;;;;14.27;13.10;;;2.90;99.90;;;;;;5052575;28;20990;-77
2021/12/07 02:31:53;;;;;;;13.70;12.80;;;2.90;99.90;;;;;;5047309;28;20437;-78
2021/12/07 02:34:23;;;;;;;13.80;12.90;;;2.90;99.90;;;;;;5052331;28;20205;-78
2021/12/07 02:36:52;;;;;;;14.27;13.27;;;2.90;99.90;;;;;;5051899;28;20474;-77
2021/12/07 02:39:29;;;;;;;14.47;13.43;;;2.80;99.90;;;;;;5052293;28;20465;-78
2021/12/07 02:41:58;;;;;;;14.43;13.43;;;2.80;99.90;;;;;;5052196;28;20457;-78
2021/12/07 02:44:26;;;;;;;14.50;13.40;;;2.70;99.90;;;;;;5052668;28;20461;-77
2021/12/07 02:46:53;;;;;;;14.33;13.33;;;2.70;99.90;;;;;;5051882;28;20457;-78
2021/12/07 02:49:21;;;;;;;13.50;12.60;;;2.70;99.90;;;;;;5052008;28;20469;-77
2021/12/07 02:51:51;;;;;;;14.03;13.10;;;2.70;99.90;;;;;;5051960;28;20441;-77
2021/12/07 02:54:20;;;;;;;13.57;12.67;;;2.70;99.90;;;;;;5051503;28;20446;-78
2021/12/07 02:56:47;;;;;;;13.77;12.87;;;2.80;99.90;;;;;;5051760;28;20480;-78
2021/12/07 02:59:17;;;;;;;13.60;12.73;;;2.80;99.90;;;;;;5052067;28;20462;-78
2021/12/07 03:01:51;;;;;;;13.40;12.60;;;2.90;99.90;;;;;;5052143;28;20500;-77
2021/12/07 03:04:22;;;;;;;13.67;12.80;;;2.90;99.90;;;;;;5051361;28;21024;-78
2021/12/07 03:07:02;;;;;;;13.83;12.93;;;2.90;99.90;;;;;;5051986;28;20461;-77
2021/12/07 03:26:15;;;;;;;13.93;12.77;;;3.20;99.90;;;;;;5051362;28;20434;-78
2021/12/07 03:28:46;;;;;;;13.83;12.90;;;3.20;99.90;;;;;;5048348;28;20493;-78
2021/12/07 03:31:19;;;;;;;14.87;13.77;;;3.20;99.90;;;;;;5049790;28;20481;-78
2021/12/07 03:33:49;;;;;;;14.27;13.33;;;3.20;99.90;;;;;;5050746;28;20441;-77
2021/12/07 03:36:16;;;;;;;13.83;12.93;;;3.10;99.90;;;;;;5046406;28;20986;-77
2021/12/07 03:38:46;;;;;;;14.20;13.20;;;3.10;99.90;;;;;;5052376;28;20501;-76
2021/12/07 03:41:14;;;;;;;14.50;13.60;;;3.10;99.90;;;;;;5051410;28;20483;-77
2021/12/07 03:43:41;;;;;;;15.03;14.10;;;3.00;99.90;;;;;;5050972;28;20433;-78
2021/12/07 03:46:09;;;;;;;13.70;12.80;;;3.00;99.90;;;;;;5052832;28;20804;-78
2021/12/07 03:48:38;;;;;;;14.03;13.03;;;2.90;99.90;;;;;;5054827;28;20539;-78
2021/12/07 03:51:05;;;;;;;14.50;13.60;;;2.80;99.90;;;;;;5048237;28;20474;-76
2021/12/07 03:53:33;;;;;;;13.47;12.57;;;2.80;99.90;;;;;;5053195;28;20441;-77
2021/12/07 03:56:04;;;;;;;13.73;12.83;;;2.70;99.90;;;;;;5050924;28;20474;-77
2021/12/07 03:58:32;;;;;;;13.83;12.93;;;2.60;99.90;;;;;;5048771;28;20519;-77
2021/12/07 04:01:00;;;;;;;14.50;13.40;;;2.60;99.90;;;;;;5050822;28;20460;-77
2021/12/07 04:03:33;;;;;;;14.83;13.73;;;2.60;99.90;;;;;;5053146;28;20466;-77
2021/12/07 04:06:04;;;;;;;14.47;13.57;;;2.60;99.90;;;;;;5050513;28;20448;-77
2021/12/07 04:08:32;;;;;;;14.30;13.40;;;2.60;99.90;;;;;;5061777;28;20543;-78
2021/12/07 04:11:00;;;;;;;13.80;12.90;;;2.70;99.90;;;;;;5050966;28;20450;-78
2021/12/07 04:13:28;;;;;;;13.33;12.53;;;2.70;99.90;;;;;;5053151;28;20495;-77
2021/12/07 04:15:57;;;;;;;13.70;12.90;;;2.80;99.90;;;;;;5048806;28;20557;-76
2021/12/07 04:18:25;;;;;;;13.43;12.70;;;2.80;99.90;;;;;;5052390;28;20473;-77
2021/12/07 04:20:52;;;;;;;13.17;12.47;;;2.80;99.90;;;;;;5047691;28;20460;-76
2021/12/07 04:23:19;;;;;;;13.90;13.10;;;2.90;99.90;;;;;;5052184;28;20453;-77
2021/12/07 04:25:46;;;;;;;13.37;12.57;;;2.90;99.90;;;;;;5050618;28;20450;-77
2021/12/07 04:28:13;;;;;;;13.30;12.50;;;3.00;99.90;;;;;;5043434;28;20455;-77
2021/12/07 04:30:43;;;;;;;13.10;12.30;;;3.00;99.90;;;;;;5052794;28;20483;-77
2021/12/07 04:33:12;;;;;;;12.70;12.00;;;3.00;99.90;;;;;;5044551;28;20453;-77
2021/12/07 04:35:40;;;;;;;13.07;12.37;;;3.00;99.90;;;;;;5050660;28;20462;-77
2021/12/07 04:38:07;;;;;;;14.10;13.03;;;3.00;99.90;;;;;;5051688;28;20466;-77
2021/12/07 04:40:35;;;;;;;13.53;12.73;;;3.00;99.90;;;;;;5047272;28;20850;-77
2021/12/07 04:43:02;;;;;;;14.17;13.37;;;2.90;99.90;;;;;;5053574;28;20441;-77
2021/12/07 04:45:36;;;;;;;13.20;12.40;;;3.00;99.90;;;;;;5050929;28;20462;-77
2021/12/07 04:48:31;;;;;;;12.63;11.90;;;2.90;99.90;;;;;;5046439;28;20497;-76
2021/12/07 04:59:17;;;;;;;12.27;11.57;;;2.90;99.90;;;;;;5044962;28;20455;-77
2021/12/07 05:01:44;;;;;;;12.73;12.03;;;2.90;99.90;;;;;;5045458;28;20901;-78
2021/12/07 05:04:17;;;;;;;12.47;11.67;;;2.90;99.90;;;;;;5044324;28;20455;-77
2021/12/07 05:06:48;;;;;;;12.20;11.40;;;3.00;99.90;;;;;;5050032;28;20448;-77
2021/12/07 05:12:23;;;;;;;12.23;11.43;;;3.10;99.90;;;;;;5051981;28;20550;-77
2021/12/07 05:14:59;;;;;;;13.27;12.40;;;3.10;99.90;;;;;;5052944;28;20448;-77
2021/12/07 05:17:43;;;;;;;12.87;12.07;;;3.10;99.90;;;;;;5054755;28;20480;-79
2021/12/07 05:26:06;;;;;;;13.57;12.57;;;3.20;99.90;;;;;;5010461;28;20434;-79
2021/12/07 05:39:33;;;;;;;13.00;12.20;;;3.20;99.90;;;;;;5050117;28;20464;-77
2021/12/07 05:42:00;;;;;;;13.07;12.17;;;3.10;99.90;;;;;;5051795;28;20496;-77
2021/12/07 05:44:27;;;;;;;12.83;12.10;;;3.00;99.90;;;;;;5052357;28;20465;-77
2021/12/07 05:46:54;;;;;;;13.20;12.40;;;2.90;99.90;;;;;;5052165;28;20445;-77
2021/12/07 05:49:20;;;;;;;14.20;13.27;;;2.90;99.90;;;;;;5048454;28;20225;-77
2021/12/07 05:51:48;;;;;;;13.80;12.90;;;2.80;99.90;;;;;;5044851;28;20454;-77
2021/12/07 05:54:15;;;;;;;12.63;11.70;;;2.80;99.90;;;;;;5050490;28;20434;-77
2021/12/07 05:56:42;;;;;;;12.20;11.50;;;2.80;99.90;;;;;;5050797;28;21067;-76
2021/12/07 05:59:09;;;;;;;13.13;12.33;;;2.80;99.90;;;;;;5052462;28;20458;-77
2021/12/07 06:01:36;;;;;;;13.83;12.77;;;2.90;99.90;;;;;;5048606;28;20548;-76
2021/12/07 06:04:03;;;;;;;13.27;12.47;;;2.90;99.90;;;;;;5048424;28;20954;-77
2021/12/07 06:06:30;;;;;;;14.03;13.23;;;3.00;99.90;;;;;;5050663;28;20434;-77
2021/12/07 06:08:58;;;;;;;14.10;13.30;;;3.00;99.90;;;;;;5048745;28;20530;-77
2021/12/07 06:11:25;;;;;;;13.63;12.53;;;3.00;99.90;;;;;;5050316;28;20479;-77
2021/12/07 06:13:52;;;;;;;12.90;12.10;;;3.00;99.90;;;;;;5050413;28;20211;-77
2021/12/07 06:16:19;;;;;;;13.40;12.60;;;3.00;99.90;;;;;;5051091;28;20265;-77
2021/12/07 06:18:46;;;;;;;13.43;12.53;;;3.00;99.90;;;;;;5050130;28;21005;-77
2021/12/07 06:21:13;;;;;;;13.73;12.83;;;3.10;99.90;;;;;;5051978;28;20515;-77
2021/12/07 06:23:41;;;;;;;13.90;12.90;;;3.00;99.90;;;;;;5052146;28;20438;-77
2021/12/07 06:26:09;;;;;;;13.70;12.80;;;2.90;99.90;;;;;;5052076;28;20448;-77
2021/12/07 06:28:36;;;;;;;13.93;13.00;;;2.90;99.90;;;;;;5050661;28;20515;-77
2021/12/07 06:31:04;;;;;;;13.30;12.60;;;2.90;99.90;;;;;;5050831;28;20499;-77
2021/12/07 06:33:31;;;;;;;13.20;12.40;;;2.80;99.90;;;;;;5050648;28;20456;-77
2021/12/07 06:36:00;;;;;;;13.43;12.53;;;2.70;99.90;;;;;;5052041;28;20484;-77
2021/12/07 06:38:28;;;;;;;13.87;12.97;;;2.70;99.90;;;;;;5050603;28;20457;-77
2021/12/07 06:40:55;;;;;;;13.90;13.10;;;2.60;99.90;;;;;;5052082;28;21000;-77
2021/12/07 06:43:24;;;;;;;13.13;12.43;;;2.50;99.90;;;;;;5051932;28;20440;-78
2021/12/07 06:45:51;;;;;;;13.60;12.80;;;2.50;99.90;;;;;;5051580;28;20432;-77
2021/12/07 06:48:19;;;;;;;14.37;13.37;;;2.50;99.90;;;;;;5050099;28;20460;-77
2021/12/07 06:50:46;;;;;;;14.17;13.10;;;2.50;99.90;;;;;;5050480;28;20450;-77
2021/12/07 06:53:13;;;;;;;13.30;12.50;;;2.50;99.90;;;;;;5051803;28;20819;-77
2021/12/07 06:55:40;;;;;;;13.70;12.80;;;2.40;99.90;;;;;;5050484;28;20461;-77
2021/12/07 06:58:06;;;;;;;14.33;13.43;;;2.40;99.90;;;;;;5051262;28;21016;-76
2021/12/07 07:00:35;;;;;;;14.63;13.70;;;2.40;99.90;;;;;;5050120;28;20509;-77
2021/12/07 07:03:02;;;;;;;13.80;13.00;;;2.40;99.90;;;;;;5051815;28;20440;-77
2021/12/07 07:05:30;;;;;;;14.00;13.10;;;2.40;99.90;;;;;;5047532;28;20818;-77
2021/12/07 07:07:56;;;;;;;14.07;12.97;;;2.40;99.90;;;;;;5049775;28;20480;-76
2021/12/07 07:10:23;;;;;;;13.50;12.60;;;2.40;99.90;;;;;;5051392;28;20469;-77
2021/12/07 07:12:50;;;;;;;13.57;12.77;;;2.30;99.90;;;;;;5054190;28;20522;-77
2021/12/07 07:15:18;;;;;;;13.63;12.70;;;2.40;99.90;;;;;;5055716;28;20430;-77
2021/12/07 07:17:46;;;;;;;13.07;12.27;;;2.40;99.90;;;;;;5053832;28;20469;-76
2021/12/07 07:20:15;;;;;;;13.30;12.57;;;2.50;99.90;;;;;;5054192;28;20507;-77
2021/12/07 07:22:42;;;;;;;13.27;12.47;;;2.50;99.90;;;;;;5054345;28;20444;-77
2021/12/07 07:25:11;;;;;;;14.13;13.13;;;2.50;99.90;;;;;;5053987;28;21034;-77
2021/12/07 07:27:38;;;;;;;13.03;12.33;;;2.60;99.90;;;;;;5055071;28;20523;-77
2021/12/07 07:30:06;;;;;;;13.23;12.47;;;2.60;99.90;;;;;;5054008;28;20507;-77
2021/12/07 07:32:33;;;;;;;13.00;12.20;;;2.60;99.90;;;;;;5055215;28;20445;-77
2021/12/07 07:35:02;;;;;;;13.27;12.37;;;2.60;99.90;;;;;;5055334;28;20483;-77
2021/12/07 07:37:28;;;;;;;13.57;12.60;;;2.70;99.90;;;;;;5041552;28;20539;-77
2021/12/07 07:39:55;;;;;;;12.80;12.10;;;2.70;99.90;;;;;;5054012;28;20449;-77
2021/12/07 07:42:22;;;;;;;13.10;12.40;;;2.70;99.90;;;;;;5053831;28;21027;-77
2021/12/07 07:45:09;;;;;;;13.60;12.60;;;2.70;99.90;;;;;;5053744;28;20828;-77
2021/12/07 07:47:37;;;;;;;13.40;12.50;;;2.70;99.90;;;;;;5055110;28;20813;-77
2021/12/07 07:50:08;;;;;;;13.60;12.70;;;2.80;99.90;;;;;;5055284;28;20560;-77
2021/12/07 07:52:36;;;;;;;13.47;12.67;;;2.80;99.90;;;;;;5054998;28;20437;-77
2021/12/07 07:55:04;;;;;;;14.30;13.30;;;2.80;99.90;;;;;;5054891;28;20460;-77
2021/12/07 07:57:31;;;;;;;14.27;13.17;;;2.80;99.90;;;;;;5054361;28;20477;-77
2021/12/07 07:59:58;;;;;;;13.77;12.97;;;2.80;99.90;;;;;;5053372;28;20450;-77
2021/12/07 08:02:25;;;;;;;14.70;13.70;;;2.90;99.90;;;;;;5054767;28;20430;-77
2021/12/07 08:04:51;;;;;;;14.57;13.47;;;3.00;99.90;;;;;;5053516;28;20518;-77
2021/12/07 08:07:19;;;;;;;13.90;12.80;;;3.10;99.90;;;;;;5054396;28;20248;-77
2021/12/07 08:09:46;;;;;;;13.57;12.67;;;3.20;99.90;;;;;;5049219;28;20563;-77
2021/12/07 08:12:13;;;;;;;13.50;12.60;;;3.20;99.90;;;;;;5054606;28;20938;-76
2021/12/07 08:14:40;;;;;;;13.80;12.80;;;3.30;99.90;;;;;;5053295;28;20970;-77
2021/12/07 08:17:07;;;;;;;14.27;13.37;;;3.30;99.90;;;;;;5052874;28;20909;-77
2021/12/07 08:19:34;;;;;;;13.57;12.60;;;3.20;99.90;;;;;;5054215;28;20515;-77
2021/12/07 08:22:01;;;;;;;14.10;13.10;;;3.40;99.90;;;;;;5054104;28;20452;-77
2021/12/07 08:24:29;;;;;;;13.70;12.80;;;3.40;99.90;;;;;;5045774;28;20430;-77
2021/12/07 08:26:56;;;;;;;13.20;12.23;;;3.40;99.90;;;;;;5053052;28;20726;-77
2021/12/07 08:29:23;;;;;;;13.93;12.97;;;3.50;99.90;;;;;;5054336;28;20979;-77
2021/12/07 08:31:49;;;;;;;13.53;12.73;;;3.50;99.90;;;;;;5054251;28;20485;-77
2021/12/07 08:34:18;;;;;;;14.13;13.23;;;3.60;99.90;;;;;;5052819;28;20507;-77
2021/12/07 08:36:45;;;;;;;14.00;13.20;;;3.60;99.90;;;;;;5052566;28;20511;-77
2021/12/07 08:39:12;;;;;;;13.60;12.70;;;3.60;99.90;;;;;;5053919;28;20274;-77
2021/12/07 08:41:40;;;;;;;11.07;10.20;;;3.70;99.90;;;;;;5052729;28;20559;-78
2021/12/07 08:44:08;;;;;;;12.47;11.67;;;3.70;99.90;;;;;;5053713;28;20195;-77
2021/12/07 08:50:25;;;;;;;15.03;13.93;;;3.60;99.90;;;;;;5052905;28;20254;-77
2021/12/07 08:52:56;;;;;;;11.67;10.80;;;3.60;99.90;;;;;;5053861;28;20195;-77
2021/12/07 09:00:54;;;;;;;5.73;4.83;;;3.70;99.90;;;;;;5048991;28;20202;-77
2021/12/07 09:03:21;;;;;;;4.23;3.83;;;3.70;99.90;;;;;;5053425;28;20191;-78
2021/12/07 09:05:48;;;;;;;4.60;4.17;;;3.70;99.90;;;;;;5053885;28;20199;-77
2021/12/07 09:08:15;;;;;;;5.57;5.10;;;3.80;99.90;;;;;;5054420;28;20227;-77
2021/12/07 09:10:41;;;;;;;7.03;6.43;;;3.70;99.90;;;;;;5052471;28;20256;-77
2021/12/07 09:13:11;;;;;;;9.50;8.90;;;3.70;99.90;;;;;;5053830;28;20257;-77
2021/12/07 09:15:38;;;;;;;8.93;8.23;;;3.80;99.90;;;;;;5053729;28;20245;-77
2021/12/07 09:18:05;;;;;;;12.67;11.67;;;3.70;99.90;;;;;;5051896;28;20219;-77
2021/12/07 09:20:33;;;;;;;12.40;11.70;;;3.70;99.90;;;;;;5045965;28;20626;-77
2021/12/07 09:23:00;;;;;;;15.33;14.30;;;3.70;99.90;;;;;;5053552;28;20261;-77
2021/12/07 09:25:28;;;;;;;7.60;6.53;;;3.70;99.90;;;;;;5052928;28;20195;-77
2021/12/07 09:27:55;;;;;;;10.17;9.47;;;3.70;99.90;;;;;;5050473;28;20219;-77
2021/12/07 09:30:23;;;;;;;6.27;5.07;;;3.80;99.90;;;;;;5050344;28;21017;-77
2021/12/07 09:32:51;;;;;;;4.80;3.40;;;3.90;99.90;;;;;;5051689;28;20454;-77
2021/12/07 09:35:20;;;;;;;9.80;9.10;;;4.00;99.90;;;;;;5051318;28;21104;-77
2021/12/07 09:37:47;;;;;;;5.67;4.00;;;4.10;99.90;;;;;;5052915;28;20223;-77
2021/12/07 09:40:16;;;;;;;5.63;5.03;;;4.20;99.90;;;;;;5053149;28;20203;-77
2021/12/07 09:42:44;;;;;;;5.73;5.23;;;4.20;99.90;;;;;;5051524;28;20668;-77
2021/12/07 09:45:13;;;;;;;5.10;4.07;;;4.20;99.90;;;;;;5053096;28;20203;-77
2021/12/07 09:47:41;;;;;;;6.67;5.93;;;4.30;99.90;;;;;;5052709;28;20215;-77
2021/12/07 09:50:10;;;;;;;13.07;12.07;;;4.30;99.90;;;;;;5052845;28;20199;-77
2021/12/07 09:52:37;;;;;;;6.17;5.43;;;4.40;99.90;;;;;;5052682;28;20191;-77
2021/12/07 09:55:04;;;;;;;5.80;5.30;;;4.40;99.90;;;;;;5051454;28;20199;-77
2021/12/07 09:57:31;;;;;;;7.73;5.60;;;4.50;99.90;;;;;;5050903;28;20219;-77
2021/12/07 09:59:58;;;;;;;5.53;4.83;;;4.60;99.90;;;;;;5053013;28;20191;-77
2021/12/07 10:02:25;;;;;;;7.30;3.80;;;4.60;99.90;;;;;;5052637;28;20265;-77
2021/12/07 10:04:53;;;;;;;12.63;11.57;;;4.60;99.90;;;;;;5051332;28;20286;-77
2021/12/07 10:07:20;;;;;;;5.10;4.67;;;4.60;99.90;;;;;;5052179;28;20202;-77
2021/12/07 10:09:48;;;;;;;7.97;5.43;;;4.60;99.90;;;;;;5052671;28;20722;-77
2021/12/07 10:12:18;;;;;;;13.33;12.40;;;4.70;99.90;;;;;;5052438;28;20249;-77
2021/12/07 10:14:45;;;;;;;7.47;5.40;;;4.70;99.90;;;;;;5052516;28;20240;-77
2021/12/07 10:17:12;;;;;;;6.73;5.40;;;4.70;99.90;;;;;;5051419;28;20605;-75
2021/12/07 10:19:44;;;;;;;8.13;5.37;;;4.70;99.90;;;;;;5050586;28;20223;-76
2021/12/07 10:22:16;;;;;;;7.53;7.03;;;4.70;99.90;;;;;;5050660;28;20214;-76
2021/12/07 10:24:48;;;;;;;3.77;3.47;;;4.70;99.90;;;;;;5051949;28;20631;-76
2021/12/07 10:27:32;;;;;;;5.27;3.87;;;4.80;99.90;;;;;;5051655;28;20211;-76
2021/12/07 10:29:59;;;;;;;12.40;11.50;;;4.80;99.90;;;;;;5051898;28;20696;-76
2021/12/07 10:32:26;;;;;;;12.87;11.97;;;4.80;99.90;;;;;;5050543;28;20250;-76
2021/12/07 10:34:53;;;;;;;13.00;11.93;;;4.90;99.90;;;;;;5046650;28;20608;-75
2021/12/07 10:37:21;;;;;;;12.50;11.70;;;4.80;99.90;;;;;;5051066;28;20199;-75
2021/12/07 10:39:51;;;;;;;13.23;12.07;;;4.90;99.90;;;;;;5051821;28;20574;-76
2021/12/07 10:42:21;;;;;;;12.50;11.70;;;4.80;99.90;;;;;;5050339;28;20199;-75
2021/12/07 10:44:49;;;;;;;12.27;11.50;;;4.80;99.90;;;;;;5050422;28;20268;-76
2021/12/07 10:47:17;;;;;;;12.33;11.63;;;4.80;99.90;;;;;;5049478;28;20203;-75
2021/12/07 10:49:46;;;;;;;12.10;11.40;;;4.90;99.90;;;;;;5050119;28;20741;-76
2021/12/07 10:52:24;;;;;;;13.00;12.20;;;4.90;99.90;;;;;;5051483;28;20377;-76
2021/12/07 10:54:59;;;;;;;12.83;12.03;;;4.90;99.90;;;;;;5051479;28;20211;-76
2021/12/07 10:57:29;;;;;;;12.73;11.93;;;5.00;99.90;;;;;;5049648;28;20253;-76
2021/12/07 11:00:00;;;;;;;12.67;11.80;;;5.00;99.90;;;;;;5039522;28;20199;-76
2021/12/07 11:02:33;;;;;;;12.17;11.47;;;5.00;99.90;;;;;;5050002;28;20246;-76
2021/12/07 11:05:01;;;;;;;13.47;12.57;;;5.10;99.90;;;;;;5050192;28;20203;-75
2021/12/07 11:07:31;;;;;;;14.40;13.30;;;5.10;99.90;;;;;;5051054;28;20244;-75
2021/12/07 11:10:06;;;;;;;13.23;12.37;;;5.10;99.90;;;;;;5047464;28;20249;-75
2021/12/07 11:12:41;;;;;;;12.67;11.87;;;5.10;99.90;;;;;;5049114;28;20484;-75
2021/12/07 11:15:15;;;;;;;13.33;12.43;;;5.10;99.90;;;;;;5051325;28;20221;-75
2021/12/07 11:17:42;;;;;;;13.50;12.60;;;5.10;99.90;;;;;;5050909;28;20207;-75
2021/12/07 11:20:10;;;;;;;13.80;12.70;;;5.20;99.90;;;;;;5051201;28;20252;-75
2021/12/07 11:22:41;;;;;;;13.33;12.13;;;5.20;99.90;;;;;;5051576;28;20253;-75
2021/12/07 11:25:09;;;;;;;12.43;11.57;;;5.10;99.90;;;;;;5049895;28;20253;-75
2021/12/07 11:30:29;;;;;;;13.93;13.03;;;5.30;99.90;;;;;;5049841;28;20195;-76
2021/12/07 11:32:59;;;;;;;13.40;12.50;;;5.30;99.90;;;;;;5051275;28;20191;-76
2021/12/07 11:35:29;;;;;;;13.63;12.83;;;5.40;99.90;;;;;;5051034;28;20196;-75
2021/12/07 11:38:00;;;;;;;13.83;13.03;;;5.50;99.90;;;;;;5050882;28;20588;-76
2021/12/07 11:40:33;;;;;;;13.50;12.57;;;5.50;99.90;;;;;;5051038;28;20196;-76
2021/12/07 11:43:00;;;;;;;13.77;12.60;;;5.60;99.90;;;;;;5049785;28;20208;-76
2021/12/07 11:45:29;;;;;;;13.40;12.60;;;5.70;99.90;;;;;;5049607;28;20329;-77
2021/12/07 11:47:58;;;;;;;13.90;13.00;;;5.70;99.90;;;;;;5050717;28;20246;-76
2021/12/07 11:50:37;;;;;;;13.00;12.20;;;5.80;99.90;;;;;;5050945;28;20196;-76
2021/12/07 11:53:08;;;;;;;12.80;12.00;;;5.80;99.90;;;;;;5051036;28;20207;-75
2021/12/07 11:55:37;;;;;;;13.37;12.53;;;5.90;99.90;;;;;;5049792;28;20199;-77
2021/12/07 11:58:06;;;;;;;12.70;12.00;;;5.80;99.90;;;;;;5047558;28;20234;-76
2021/12/07 12:00:36;;;;;;;12.60;11.80;;;5.70;99.90;;;;;;5053371;28;20660;-76
2021/12/07 12:03:04;;;;;;;12.80;11.67;;;5.70;99.90;;;;;;5053392;28;20265;-76
2021/12/07 12:05:31;;;;;;;12.50;11.63;;;5.70;99.90;;;;;;5055287;28;20195;-76
2021/12/07 12:07:59;;;;;;;12.63;11.77;;;5.70;99.90;;;;;;5053968;28;20330;-76
2021/12/07 12:10:32;;;;;;;11.80;11.10;;;5.80;99.90;;;;;;5054180;28;20196;-76
2021/12/07 12:13:10;;;;;;;12.37;11.50;;;5.90;99.90;;;;;;5052809;28;20204;-75
2021/12/07 12:15:54;;;;;;;12.50;11.60;;;6.00;99.90;;;;;;5047540;28;20249;-76
2021/12/07 12:18:32;;;;;;;12.37;11.67;;;6.10;99.90;;;;;;5052521;28;20222;-76
2021/12/07 12:21:14;;;;;;;12.50;11.60;;;6.10;99.90;;;;;;5054119;28;20208;-76
2021/12/07 12:23:50;;;;;;;12.13;11.43;;;6.20;99.90;;;;;;5047981;28;20435;-76
2021/12/07 12:26:23;;;;;;;11.53;10.83;;;6.30;99.90;;;;;;5054023;28;20255;-76
2021/12/07 12:28:51;;;;;;;12.07;11.30;;;6.40;99.90;;;;;;5054065;28;20741;-76
2021/12/07 12:31:19;;;;;;;12.10;11.30;;;6.30;99.90;;;;;;5053956;28;20249;-76
2021/12/07 12:33:54;;;;;;;12.13;11.37;;;6.20;99.90;;;;;;5052451;28;20281;-76
2021/12/07 12:36:23;;;;;;;12.53;11.53;;;6.10;99.90;;;;;;5052522;28;20258;-76
2021/12/07 12:38:57;;;;;;;11.83;11.10;;;6.10;99.90;;;;;;5053640;28;20753;-75
2021/12/07 12:41:26;;;;;;;12.23;11.10;;;6.10;99.90;;;;;;5052347;28;20195;-76
2021/12/07 12:43:55;;;;;;;11.63;10.83;;;6.10;99.90;;;;;;5052603;28;20673;-76
2021/12/07 12:46:25;;;;;;;12.30;11.27;;;6.10;99.90;;;;;;5053444;28;20203;-75
2021/12/07 12:48:54;;;;;;;11.27;10.50;;;6.10;99.90;;;;;;5047606;28;20257;-76
2021/12/07 12:51:22;;;;;;;11.70;10.80;;;6.10;99.90;;;;;;5053707;28;20656;-76
2021/12/07 12:53:51;;;;;;;10.97;10.17;;;6.10;99.90;;;;;;5052374;28;20196;-76
2021/12/07 12:56:20;;;;;;;11.53;10.63;;;6.00;99.90;;;;;;5053505;28;20250;-76
2021/12/07 12:58:52;;;;;;;11.37;10.67;;;5.90;99.90;;;;;;5053397;28;20606;-76
2021/12/07 13:01:25;;;;;;;11.70;10.80;;;5.90;99.90;;;;;;5053508;28;20195;-76
2021/12/07 13:04:11;;;;;;;11.40;10.60;;;5.80;99.90;;;;;;5052287;28;20203;-76
2021/12/07 13:06:48;;;;;;;11.93;10.90;;;5.70;99.90;;;;;;5046551;28;20249;-75
2021/12/07 13:09:27;;;;;;;11.43;10.53;;;5.60;99.90;;;;;;5051235;28;20214;-76
2021/12/07 13:11:56;;;;;;;11.30;10.60;;;5.60;99.90;;;;;;5053541;28;20671;-76
2021/12/07 13:14:36;;;;;;;11.50;10.60;;;5.50;99.90;;;;;;5052983;28;20200;-75
2021/12/07 13:17:09;;;;;;;11.20;10.50;;;5.50;99.90;;;;;;5052914;28;20240;-76
2021/12/07 13:20:09;;;;;;;11.17;10.37;;;5.40;99.90;;;;;;5052946;28;20207;-75
2021/12/07 13:22:37;;;;;;;11.80;11.10;;;5.40;99.90;;;;;;5044729;28;20667;-75
2021/12/07 13:25:06;;;;;;;11.33;10.60;;;5.50;99.90;;;;;;5052946;28;20569;-76
2021/12/07 13:27:34;;;;;;;11.83;10.90;;;5.50;99.90;;;;;;5052612;28;20202;-76
2021/12/07 13:30:02;;;;;;;11.37;10.57;;;5.50;99.90;;;;;;5052912;28;20187;-75
2021/12/07 13:32:29;;;;;;;11.20;10.50;;;5.50;99.90;;;;;;5044973;28;20249;-75
2021/12/07 13:35:06;;;;;;;11.00;10.30;;;5.50;99.90;;;;;;5052935;28;20203;-75
2021/12/07 13:37:47;;;;;;;11.07;10.37;;;5.40;99.90;;;;;;5045077;28;20642;-75
2021/12/07 13:40:21;;;;;;;11.90;11.00;;;5.40;99.90;;;;;;5052537;28;20203;-76
2021/12/07 13:42:52;;;;;;;11.40;10.70;;;5.40;99.90;;;;;;5051415;28;20202;-75
2021/12/07 13:45:21;;;;;;;11.30;10.50;;;5.40;99.90;;;;;;5051217;28;20199;-76
2021/12/07 13:47:50;;;;;;;11.63;10.80;;;5.40;99.90;;;;;;5051035;28;20696;-75
2021/12/07 13:50:20;;;;;;;11.20;10.50;;;5.50;99.90;;;;;;5051268;28;20199;-76
2021/12/07 13:52:50;;;;;;;11.00;10.30;;;5.60;99.90;;;;;;5050930;28;20200;-75
2021/12/07 13:55:20;;;;;;;11.50;10.40;;;5.70;99.90;;;;;;5052376;28;20199;-76
2021/12/07 13:57:49;;;;;;;10.80;10.20;;;5.80;99.90;;;;;;5050939;28;20214;-75
2021/12/07 14:00:18;;;;;;;10.90;10.20;;;5.80;99.90;;;;;;5052331;28;20219;-76
2021/12/07 14:02:49;;;;;;;11.03;10.33;;;5.90;99.90;;;;;;5051074;28;20195;-76
2021/12/07 14:05:19;;;;;;;11.37;10.67;;;5.80;99.90;;;;;;5052149;28;20636;-76
2021/12/07 14:07:47;;;;;;;11.40;10.60;;;5.80;99.90;;;;;;5050465;28;20738;-76
2021/12/07 14:10:18;;;;;;;10.90;10.20;;;5.70;99.90;;;;;;5046708;28;20196;-76
2021/12/07 14:12:47;;;;;;;11.03;10.43;;;5.60;99.90;;;;;;5050876;28;20203;-76
2021/12/07 14:15:18;;;;;;;11.07;10.37;;;5.60;99.90;;;;;;5052101;28;20640;-76